Time;durP1;ratioP1;P1;durP2;ratioP2;P2;SDS_P1;SDS_P2;PMS_P1;PMS_P2;Temp;Humidity;BMP_temperature;BMP_pressure;BME280_temperature;BME280_humidity;BME280_pressure;Samples;Min_cycle;Max_cycle;Signal;HPM_P1;HPM_P2
2023/02/16 00:01:35;;;;;;;14.48;9.68;;;18.00;42.90;;;;;;5095684;28;20278;-72
2023/02/16 00:04:08;;;;;;;12.65;9.88;;;18.00;42.90;;;;;;5095284;28;20647;-72
2023/02/16 00:06:36;;;;;;;13.20;9.15;;;18.00;42.90;;;;;;5095638;28;20622;-72
2023/02/16 00:09:03;;;;;;;15.23;9.60;;;17.90;42.80;;;;;;5102153;28;20219;-72
2023/02/16 00:14:21;;;;;;;15.23;10.02;;;17.90;42.90;;;;;;5115847;28;20177;-71
2023/02/16 00:16:50;;;;;;;13.00;10.20;;;17.90;42.90;;;;;;5115935;28;20213;-72
2023/02/16 00:19:21;;;;;;;12.68;9.13;;;18.00;43.10;;;;;;5115667;28;20190;-71
2023/02/16 00:21:49;;;;;;;13.90;9.75;;;17.90;43.00;;;;;;5099501;27;20282;-72
2023/02/16 00:24:16;;;;;;;12.43;9.00;;;17.90;43.10;;;;;;5094883;28;20186;-72
2023/02/16 00:26:44;;;;;;;11.10;9.02;;;17.90;43.10;;;;;;5095109;28;20267;-72
2023/02/16 00:29:18;;;;;;;16.20;9.20;;;17.90;43.10;;;;;;5095166;28;20186;-72
2023/02/16 00:31:45;;;;;;;12.63;8.45;;;17.90;43.10;;;;;;5094719;28;20214;-72
2023/02/16 00:34:42;;;;;;;13.27;8.57;;;17.80;43.10;;;;;;5112016;28;20197;-73
2023/02/16 00:37:12;;;;;;;12.43;8.75;;;17.90;43.20;;;;;;5112392;28;20229;-72
2023/02/16 00:39:41;;;;;;;13.75;8.57;;;17.90;43.30;;;;;;5115034;28;20242;-71
2023/02/16 00:42:14;;;;;;;12.35;8.98;;;17.90;43.30;;;;;;5114775;28;20212;-72
2023/02/16 00:44:44;;;;;;;12.73;9.00;;;17.90;43.30;;;;;;5094486;28;20189;-72
2023/02/16 00:47:19;;;;;;;12.68;8.68;;;17.90;43.30;;;;;;5094476;28;20267;-71
2023/02/16 00:49:46;;;;;;;13.77;9.10;;;17.80;43.30;;;;;;5094670;28;20217;-71
2023/02/16 00:52:31;;;;;;;13.57;8.85;;;17.90;43.40;;;;;;5094792;28;20267;-71
2023/02/16 00:55:00;;;;;;;12.05;8.20;;;17.80;43.40;;;;;;5102171;28;20189;-72
2023/02/16 00:57:30;;;;;;;14.10;8.35;;;17.80;43.40;;;;;;5114700;28;20706;-71
2023/02/16 01:00:03;;;;;;;11.93;8.35;;;17.80;43.40;;;;;;5114631;28;20235;-71
2023/02/16 01:02:31;;;;;;;12.35;8.07;;;17.80;43.50;;;;;;5114586;28;20219;-71
2023/02/16 01:04:58;;;;;;;13.30;8.55;;;17.80;43.50;;;;;;5095089;28;20197;-71
2023/02/16 01:13:01;;;;;;;11.48;8.25;;;17.80;43.60;;;;;;5076473;28;20197;-72
2023/02/16 01:15:28;;;;;;;12.38;8.40;;;17.80;43.70;;;;;;5094191;28;20207;-73
2023/02/16 01:17:55;;;;;;;11.95;8.20;;;17.80;43.70;;;;;;5104404;28;20265;-72
2023/02/16 01:20:24;;;;;;;12.00;7.97;;;17.80;43.80;;;;;;5114159;28;20284;-72
2023/02/16 01:22:54;;;;;;;12.32;7.70;;;17.80;43.80;;;;;;5114402;28;20181;-72
2023/02/16 01:25:21;;;;;;;15.93;7.93;;;17.80;43.90;;;;;;5114285;28;20193;-72
2023/02/16 01:27:49;;;;;;;10.95;7.80;;;17.80;44.00;;;;;;5114153;28;20646;-71
2023/02/16 01:30:19;;;;;;;13.15;7.55;;;17.80;44.00;;;;;;5100415;28;20251;-71
2023/02/16 01:32:50;;;;;;;9.60;7.28;;;17.80;44.00;;;;;;5093859;28;20194;-72
2023/02/16 01:35:18;;;;;;;12.40;8.10;;;17.80;44.00;;;;;;5093895;28;20197;-72
2023/02/16 01:37:45;;;;;;;11.52;7.68;;;17.80;44.20;;;;;;5093660;28;20702;-72
2023/02/16 01:40:23;;;;;;;13.63;7.60;;;17.80;44.20;;;;;;5094080;28;20202;-72
2023/02/16 01:42:53;;;;;;;8.57;7.15;;;17.80;44.20;;;;;;5109096;28;20243;-72
2023/02/16 01:45:28;;;;;;;10.23;7.15;;;17.70;44.30;;;;;;5114074;28;20186;-72
2023/02/16 01:48:00;;;;;;;9.48;7.20;;;17.80;44.30;;;;;;5113941;28;20185;-72
2023/02/16 01:50:33;;;;;;;8.45;6.90;;;17.80;44.30;;;;;;5113735;28;20269;-71
2023/02/16 01:53:06;;;;;;;11.10;7.55;;;17.70;44.30;;;;;;5113908;28;20189;-71
2023/02/16 01:55:38;;;;;;;10.77;7.15;;;17.80;44.30;;;;;;5092411;28;20201;-71
2023/02/16 01:58:11;;;;;;;9.90;6.75;;;17.80;44.30;;;;;;5093377;28;20235;-71
2023/02/16 02:01:14;;;;;;;11.60;7.00;;;17.80;44.30;;;;;;5093318;28;20216;-72
2023/02/16 02:06:32;;;;;;;9.75;6.30;;;17.70;44.30;;;;;;5092367;28;20706;-71
2023/02/16 02:09:03;;;;;;;13.30;7.50;;;17.70;44.30;;;;;;5092913;28;20652;-72
2023/02/16 02:11:36;;;;;;;14.25;7.22;;;17.70;44.30;;;;;;5091655;28;20632;-72
2023/02/16 02:14:07;;;;;;;11.60;6.20;;;17.70;44.30;;;;;;5093173;28;20190;-73
2023/02/16 02:16:34;;;;;;;9.48;6.78;;;17.70;44.30;;;;;;5092982;28;20303;-72
2023/02/16 02:19:01;;;;;;;11.25;7.22;;;17.70;44.30;;;;;;5104652;28;20189;-72
2023/02/16 02:25:08;;;;;;;10.68;6.03;;;17.70;44.40;;;;;;5071411;28;20270;-71
2023/02/16 02:27:40;;;;;;;9.23;6.03;;;17.70;44.30;;;;;;5092810;28;20218;-72
2023/02/16 02:30:33;;;;;;;13.32;6.30;;;17.70;44.40;;;;;;5097827;28;20182;-71
2023/02/16 02:33:16;;;;;;;9.55;6.47;;;17.70;44.50;;;;;;5112792;28;20220;-72
2023/02/16 02:35:49;;;;;;;10.38;5.88;;;17.70;44.70;;;;;;5112589;28;20609;-72
2023/02/16 02:38:24;;;;;;;10.90;5.88;;;17.70;44.70;;;;;;5113149;28;20189;-72
2023/02/16 02:41:04;;;;;;;10.40;5.90;;;17.70;44.70;;;;;;5113037;27;20197;-72
2023/02/16 02:43:39;;;;;;;10.02;6.07;;;17.70;44.70;;;;;;5096113;28;20193;-72
2023/02/16 02:46:11;;;;;;;8.77;5.60;;;17.70;44.80;;;;;;5092647;28;20219;-73
2023/02/16 02:48:39;;;;;;;8.88;5.82;;;17.70;44.80;;;;;;5091221;28;20190;-71
2023/02/16 02:51:32;;;;;;;9.85;5.03;;;17.60;44.80;;;;;;5092467;28;20232;-72
2023/02/16 03:02:28;;;;;;;9.63;5.55;;;17.60;45.00;;;;;;5112549;28;20218;-73
2023/02/16 03:04:57;;;;;;;6.78;5.60;;;17.70;45.10;;;;;;5112919;28;20197;-72
2023/02/16 03:07:45;;;;;;;8.90;5.20;;;17.70;45.10;;;;;;5100650;28;20780;-73
2023/02/16 03:13:17;;;;;;;8.85;4.72;;;17.60;45.20;;;;;;5049895;28;20202;-72
2023/02/16 03:15:48;;;;;;;7.47;4.72;;;17.60;45.20;;;;;;5049621;28;20249;-72
2023/02/16 03:29:21;;;;;;;9.40;4.43;;;17.60;45.40;;;;;;5049862;28;20191;-71
2023/02/16 03:31:50;;;;;;;8.80;4.50;;;17.60;45.40;;;;;;5035995;28;20278;-71
2023/02/16 03:34:20;;;;;;;8.15;4.45;;;17.60;45.40;;;;;;5053312;28;20196;-72
2023/02/16 03:36:50;;;;;;;7.60;4.55;;;17.60;45.50;;;;;;5053200;28;20305;-72
2023/02/16 03:39:18;;;;;;;8.35;4.13;;;17.60;45.60;;;;;;5053189;28;20192;-72
2023/02/16 03:41:48;;;;;;;6.65;4.07;;;17.60;45.50;;;;;;5053046;28;20219;-72
2023/02/16 03:44:16;;;;;;;7.40;4.45;;;17.60;45.60;;;;;;5076267;28;20197;-71
2023/02/16 03:46:43;;;;;;;6.32;3.85;;;17.60;45.60;;;;;;5094698;28;20214;-71
2023/02/16 03:49:12;;;;;;;7.85;4.22;;;17.60;45.70;;;;;;5095971;28;20243;-72
2023/02/16 03:51:39;;;;;;;7.20;4.28;;;17.60;45.70;;;;;;5095447;28;20229;-72
2023/02/16 03:54:07;;;;;;;6.22;4.05;;;17.60;45.70;;;;;;5095501;28;20191;-72
2023/02/16 03:56:34;;;;;;;6.55;3.78;;;17.60;45.70;;;;;;5116073;28;20220;-72
2023/02/16 03:59:01;;;;;;;5.57;3.65;;;17.60;45.70;;;;;;5108496;28;20190;-71
2023/02/16 04:01:29;;;;;;;6.25;3.85;;;17.60;45.70;;;;;;5077563;28;20240;-71
2023/02/16 04:03:56;;;;;;;6.78;3.67;;;17.60;45.80;;;;;;5094482;28;20186;-72
2023/02/16 04:06:24;;;;;;;6.70;4.03;;;17.60;45.80;;;;;;5113714;28;20189;-72
2023/02/16 04:08:53;;;;;;;8.20;3.60;;;17.60;45.80;;;;;;5115555;28;20185;-72
2023/02/16 04:14:04;;;;;;;6.63;3.67;;;17.60;45.80;;;;;;5115850;28;20184;-72
2023/02/16 04:16:31;;;;;;;4.63;3.30;;;17.60;45.80;;;;;;5113612;28;20686;-72
2023/02/16 04:18:59;;;;;;;5.22;3.05;;;17.60;45.90;;;;;;5095073;28;20652;-72
2023/02/16 04:21:28;;;;;;;6.55;3.40;;;17.60;46.00;;;;;;5095131;28;20199;-71
2023/02/16 04:23:55;;;;;;;7.35;3.70;;;17.60;46.00;;;;;;5095243;28;20187;-72
2023/02/16 04:26:22;;;;;;;7.32;3.55;;;17.50;46.00;;;;;;5095177;28;20201;-73
2023/02/16 04:28:50;;;;;;;9.85;3.42;;;17.50;45.90;;;;;;5097304;28;20194;-73
2023/02/16 04:31:17;;;;;;;7.05;3.60;;;17.60;46.00;;;;;;5113639;28;20213;-72
2023/02/16 04:33:44;;;;;;;8.55;3.88;;;17.50;46.00;;;;;;5115471;27;20186;-72
2023/02/16 04:36:11;;;;;;;6.82;3.50;;;17.50;46.00;;;;;;5115075;28;20247;-71
2023/02/16 04:38:40;;;;;;;7.95;3.20;;;17.50;46.00;;;;;;5115606;28;20193;-71
2023/02/16 04:41:07;;;;;;;4.97;3.00;;;17.50;46.00;;;;;;5113181;28;20193;-72
2023/02/16 04:43:34;;;;;;;4.85;3.30;;;17.50;46.10;;;;;;5094058;28;20625;-71
2023/02/16 04:46:01;;;;;;;6.35;3.30;;;17.50;46.10;;;;;;5094828;28;20281;-72
2023/02/16 04:48:28;;;;;;;5.93;3.25;;;17.50;46.10;;;;;;5094730;28;20222;-72
2023/02/16 04:50:55;;;;;;;5.50;3.20;;;17.50;46.20;;;;;;5094625;28;20217;-71
2023/02/16 04:53:22;;;;;;;5.68;3.08;;;17.50;46.10;;;;;;5100077;28;20706;-71
2023/02/16 04:55:51;;;;;;;7.00;3.25;;;17.50;46.10;;;;;;5115110;28;20601;-72
2023/02/16 04:58:18;;;;;;;5.03;3.20;;;17.50;46.20;;;;;;5113719;28;20217;-72
2023/02/16 05:00:46;;;;;;;7.45;3.00;;;17.50;46.20;;;;;;5114597;28;20608;-72
2023/02/16 05:03:13;;;;;;;6.28;3.20;;;17.50;46.20;;;;;;5114852;28;20246;-72
2023/02/16 05:05:40;;;;;;;6.55;3.20;;;17.50;46.30;;;;;;5103804;28;20190;-72
2023/02/16 05:08:07;;;;;;;7.85;3.03;;;17.50;46.40;;;;;;5092697;28;20232;-72
2023/02/16 05:10:35;;;;;;;3.75;2.60;;;17.50;46.40;;;;;;5094068;28;20190;-72
2023/02/16 05:15:48;;;;;;;4.78;2.75;;;17.50;46.30;;;;;;5094606;28;20311;-73
2023/02/16 05:18:15;;;;;;;6.50;3.13;;;17.40;46.30;;;;;;5094868;28;20259;-71
2023/02/16 05:23:26;;;;;;;4.93;3.53;;;17.50;46.40;;;;;;5104754;28;20235;-72
2023/02/16 05:25:53;;;;;;;3.58;2.70;;;17.50;46.40;;;;;;5114426;28;20535;-72
2023/02/16 05:28:22;;;;;;;6.47;3.38;;;17.40;46.30;;;;;;5114621;27;20695;-72
2023/02/16 05:30:49;;;;;;;4.80;3.00;;;17.50;46.50;;;;;;5114233;28;20185;-72
2023/02/16 05:33:16;;;;;;;7.18;3.35;;;17.40;46.30;;;;;;5104625;28;20213;-72
2023/02/16 05:35:43;;;;;;;6.13;3.38;;;17.40;46.30;;;;;;5093613;28;20190;-71
2023/02/16 05:38:10;;;;;;;6.75;3.20;;;17.40;46.40;;;;;;5093918;28;20270;-71
2023/02/16 05:40:38;;;;;;;7.38;3.15;;;17.50;46.40;;;;;;5093682;28;20251;-72
2023/02/16 05:43:05;;;;;;;6.85;2.60;;;17.40;46.40;;;;;;5093546;28;20722;-72
2023/02/16 05:45:34;;;;;;;5.75;2.97;;;17.50;46.50;;;;;;5104900;28;20189;-72
2023/02/16 05:48:03;;;;;;;5.30;3.15;;;17.40;46.40;;;;;;5114131;28;20217;-71
2023/02/16 05:50:30;;;;;;;5.43;2.95;;;17.50;46.60;;;;;;5113659;28;20189;-72
2023/02/16 05:52:57;;;;;;;5.13;2.80;;;17.50;46.70;;;;;;5113787;28;20695;-72
2023/02/16 05:55:24;;;;;;;4.93;2.80;;;17.50;46.70;;;;;;5112813;28;20343;-71
2023/02/16 05:57:51;;;;;;;3.95;3.03;;;17.50;46.70;;;;;;5099172;27;20278;-71
2023/02/16 06:00:19;;;;;;;6.00;3.00;;;17.60;46.70;;;;;;5093134;28;20648;-71
2023/02/16 06:02:47;;;;;;;6.65;2.90;;;17.60;46.70;;;;;;5092939;28;20882;-72
2023/02/16 06:05:15;;;;;;;5.53;2.90;;;17.60;46.70;;;;;;5092893;28;20711;-72
2023/02/16 06:07:42;;;;;;;7.82;2.95;;;17.60;46.70;;;;;;5093311;28;20663;-72
2023/02/16 06:10:09;;;;;;;5.72;2.95;;;17.70;46.70;;;;;;5111843;28;20193;-72
2023/02/16 06:12:36;;;;;;;5.65;2.90;;;17.60;46.50;;;;;;5113151;27;20233;-72
2023/02/16 06:15:04;;;;;;;6.47;2.80;;;17.70;46.50;;;;;;5113566;28;20189;-72
2023/02/16 06:17:31;;;;;;;4.75;2.78;;;17.80;46.40;;;;;;5094189;28;20271;-72
2023/02/16 06:20:00;;;;;;;3.58;2.55;;;17.80;46.40;;;;;;5093081;28;20598;-72
2023/02/16 06:22:27;;;;;;;5.47;2.83;;;17.80;46.30;;;;;;5111273;28;20217;-72
2023/02/16 06:24:54;;;;;;;6.68;2.85;;;17.90;46.30;;;;;;5111667;28;20704;-72
2023/02/16 06:27:22;;;;;;;5.28;2.92;;;17.90;46.30;;;;;;5113357;28;20210;-72
2023/02/16 06:29:49;;;;;;;5.25;2.42;;;17.90;46.20;;;;;;5113219;28;20189;-72
2023/02/16 06:32:17;;;;;;;7.22;3.05;;;17.90;46.20;;;;;;5113100;28;20675;-71
2023/02/16 06:34:44;;;;;;;3.25;2.60;;;17.90;46.10;;;;;;5093182;28;20200;-72
2023/02/16 06:37:13;;;;;;;4.57;2.45;;;18.00;46.10;;;;;;5087574;28;20300;-72
2023/02/16 06:39:40;;;;;;;6.35;2.75;;;18.00;46.10;;;;;;5093074;28;20197;-72
2023/02/16 06:42:07;;;;;;;4.07;2.45;;;18.10;46.20;;;;;;5092326;28;20615;-72
2023/02/16 06:44:34;;;;;;;3.38;2.35;;;18.10;46.20;;;;;;5095093;28;20181;-72
2023/02/16 06:47:01;;;;;;;4.00;2.00;;;18.10;46.20;;;;;;5112978;28;20197;-72
2023/02/16 06:49:29;;;;;;;4.97;2.65;;;18.10;46.10;;;;;;5112983;28;20601;-71
2023/02/16 06:51:56;;;;;;;6.10;3.22;;;18.10;45.90;;;;;;5112454;28;20341;-73
2023/02/16 06:54:25;;;;;;;5.43;3.58;;;18.20;46.50;;;;;;5112079;28;20774;-74
2023/02/16 06:56:52;;;;;;;6.55;3.90;;;18.30;46.60;;;;;;5103780;28;20634;-74
2023/02/16 06:59:19;;;;;;;7.70;2.97;;;18.30;47.50;;;;;;5091421;28;20668;-73
2023/02/16 07:01:46;;;;;;;4.18;2.58;;;18.30;47.80;;;;;;5092196;28;20610;-74
2023/02/16 07:04:14;;;;;;;6.70;2.78;;;18.30;47.20;;;;;;5092388;28;20260;-75
2023/02/16 07:06:41;;;;;;;3.97;2.80;;;18.30;46.90;;;;;;5095370;28;20186;-75
2023/02/16 07:09:08;;;;;;;4.20;2.70;;;18.40;46.80;;;;;;5105788;28;20217;-74
2023/02/16 07:11:37;;;;;;;7.07;2.60;;;18.40;46.70;;;;;;5116932;28;20623;-74
2023/02/16 07:14:05;;;;;;;4.55;2.65;;;18.40;46.80;;;;;;5116981;28;20216;-75
2023/02/16 07:16:32;;;;;;;4.68;2.42;;;18.40;46.70;;;;;;5116643;28;20604;-75
2023/02/16 07:19:00;;;;;;;5.05;2.50;;;18.40;46.80;;;;;;5115075;28;20209;-75
2023/02/16 07:21:27;;;;;;;4.38;2.33;;;18.40;46.80;;;;;;5116560;28;20185;-75
2023/02/16 07:23:55;;;;;;;3.70;2.30;;;18.40;46.80;;;;;;5116739;28;20209;-75
2023/02/16 07:26:22;;;;;;;3.50;2.17;;;18.50;46.80;;;;;;5116426;28;20728;-74
2023/02/16 07:28:51;;;;;;;6.00;2.30;;;18.50;46.80;;;;;;5097771;28;20246;-75
2023/02/16 07:31:18;;;;;;;2.83;2.20;;;18.50;46.80;;;;;;5096246;28;20581;-74
2023/02/16 07:33:46;;;;;;;3.90;2.40;;;18.50;46.80;;;;;;5096087;28;20229;-75
2023/02/16 07:36:13;;;;;;;3.80;2.50;;;18.50;46.80;;;;;;5096000;28;20266;-75
2023/02/16 07:38:41;;;;;;;3.55;1.95;;;18.50;46.70;;;;;;5096189;28;20217;-79
2023/02/16 07:41:09;;;;;;;3.60;1.75;;;18.50;46.70;;;;;;5100149;28;20206;-78
2023/02/16 07:43:37;;;;;;;4.60;2.22;;;18.60;46.80;;;;;;5096326;28;20294;-79
2023/02/16 07:46:07;;;;;;;5.97;1.63;;;18.60;46.80;;;;;;5103113;28;20205;-79
2023/02/16 07:48:34;;;;;;;3.72;1.85;;;18.60;46.80;;;;;;5114590;28;20271;-79
2023/02/16 07:51:02;;;;;;;5.05;2.00;;;18.70;46.80;;;;;;5103859;28;20247;-78
2023/02/16 07:53:29;;;;;;;6.05;1.90;;;18.70;46.80;;;;;;5110248;28;20248;-78
2023/02/16 07:55:56;;;;;;;3.83;1.85;;;18.70;46.70;;;;;;5112340;28;20242;-79
2023/02/16 07:58:29;;;;;;;2.47;1.60;;;18.80;46.80;;;;;;5109705;28;20220;-79
2023/02/16 08:01:05;;;;;;;2.72;1.67;;;18.80;46.80;;;;;;5114266;28;20193;-76
2023/02/16 08:03:35;;;;;;;6.40;1.80;;;18.90;46.80;;;;;;5113103;28;20220;-78
2023/02/16 08:06:03;;;;;;;2.67;1.65;;;18.90;46.80;;;;;;5113342;28;20234;-76
2023/02/16 08:08:30;;;;;;;3.33;1.70;;;18.90;47.50;;;;;;5109025;28;20759;-78
2023/02/16 08:10:58;;;;;;;2.55;1.50;;;19.00;47.00;;;;;;5113728;28;20197;-79
2023/02/16 08:13:25;;;;;;;4.80;1.80;;;19.00;47.00;;;;;;5112992;28;20285;-78
2023/02/16 08:15:52;;;;;;;3.10;1.60;;;19.00;47.00;;;;;;5114495;28;20197;-78
2023/02/16 08:18:20;;;;;;;3.33;1.50;;;19.10;47.10;;;;;;5097743;28;20229;-73
2023/02/16 08:20:48;;;;;;;5.32;2.20;;;19.10;47.00;;;;;;5095603;28;20224;-77
2023/02/16 08:23:16;;;;;;;4.03;1.70;;;19.10;47.10;;;;;;5099432;28;20736;-79
2023/02/16 08:25:44;;;;;;;2.53;1.48;;;19.20;47.40;;;;;;5109907;28;20197;-76
2023/02/16 08:28:13;;;;;;;5.38;2.33;;;19.20;47.20;;;;;;5098771;28;21023;-78
2023/02/16 08:30:41;;;;;;;2.92;1.77;;;19.20;47.30;;;;;;5104953;28;20201;-78
2023/02/16 08:33:08;;;;;;;3.35;1.83;;;19.20;47.00;;;;;;5106175;28;20257;-79
2023/02/16 08:35:38;;;;;;;4.53;1.80;;;19.30;46.90;;;;;;5104686;27;20605;-78
2023/02/16 08:38:07;;;;;;;8.50;2.38;;;19.30;46.90;;;;;;5065057;28;20250;-78
2023/02/16 08:40:35;;;;;;;3.25;2.08;;;19.30;46.80;;;;;;5055948;28;20208;-78
2023/02/16 08:43:02;;;;;;;5.80;2.15;;;19.30;46.40;;;;;;5063104;28;20268;-78
2023/02/16 08:45:30;;;;;;;4.03;2.00;;;19.20;46.10;;;;;;5064356;28;20218;-78
2023/02/16 08:48:00;;;;;;;5.40;1.90;;;19.20;46.10;;;;;;5066832;28;20757;-76
2023/02/16 08:50:27;;;;;;;6.40;2.10;;;19.20;47.00;;;;;;5066560;28;20199;-78
2023/02/16 08:52:55;;;;;;;4.63;1.95;;;19.30;46.50;;;;;;5058397;28;20656;-79
2023/02/16 08:55:24;;;;;;;7.07;2.35;;;19.20;46.60;;;;;;5061757;28;20206;-76
2023/02/16 08:57:51;;;;;;;9.43;2.63;;;19.30;46.80;;;;;;5056653;28;20720;-82
2023/02/16 09:00:37;;;;;;;8.48;2.20;;;19.30;46.90;;;;;;5051419;28;20730;-78
2023/02/16 09:03:05;;;;;;;5.05;2.45;;;19.30;46.90;;;;;;5048433;28;21462;-76
2023/02/16 09:05:34;;;;;;;7.00;2.00;;;19.30;46.70;;;;;;5058790;28;20228;-78
2023/02/16 09:08:02;;;;;;;5.22;2.25;;;19.30;46.70;;;;;;5058943;28;20222;-76
2023/02/16 09:10:31;;;;;;;5.72;1.98;;;19.30;47.00;;;;;;5055811;28;20650;-81
2023/02/16 09:12:58;;;;;;;9.65;2.30;;;19.30;46.90;;;;;;5057350;28;20311;-80
2023/02/16 09:15:25;;;;;;;7.47;2.28;;;19.40;46.80;;;;;;5056687;28;20264;-80
2023/02/16 09:17:52;;;;;;;6.22;2.00;;;19.40;46.70;;;;;;5056550;28;20364;-78
2023/02/16 09:20:20;;;;;;;7.05;2.20;;;19.40;46.50;;;;;;5054176;28;20211;-75
2023/02/16 09:22:47;;;;;;;5.53;2.13;;;19.40;46.80;;;;;;5042659;28;20806;-75
2023/02/16 09:25:15;;;;;;;8.45;1.80;;;19.40;46.90;;;;;;5058448;28;20203;-76
2023/02/16 09:27:44;;;;;;;3.10;2.15;;;19.40;46.80;;;;;;5054025;28;20230;-78
2023/02/16 09:30:12;;;;;;;6.00;2.00;;;19.40;46.50;;;;;;5058553;28;20199;-79
2023/02/16 09:32:41;;;;;;;3.55;1.80;;;19.40;46.40;;;;;;5057019;28;20215;-80
2023/02/16 09:35:09;;;;;;;4.60;1.90;;;19.40;46.60;;;;;;5060510;28;20207;-79
2023/02/16 09:37:36;;;;;;;6.68;2.10;;;19.40;46.40;;;;;;5089591;28;20231;-79
2023/02/16 09:40:05;;;;;;;4.93;1.85;;;19.40;46.50;;;;;;5091434;28;20880;-77
2023/02/16 09:42:50;;;;;;;5.05;2.13;;;19.40;46.60;;;;;;5094551;27;20204;-78
2023/02/16 09:45:20;;;;;;;3.08;1.85;;;19.40;46.60;;;;;;5097286;27;20228;-78
2023/02/16 09:47:49;;;;;;;7.15;1.98;;;19.40;46.50;;;;;;5091975;27;20341;-78
2023/02/16 09:50:20;;;;;;;5.10;2.08;;;19.40;46.40;;;;;;5093836;27;20692;-78
2023/02/16 09:52:53;;;;;;;3.92;1.80;;;19.40;46.40;;;;;;5089802;28;20750;-79
2023/02/16 09:55:23;;;;;;;6.20;2.10;;;19.40;46.50;;;;;;5097898;27;20205;-79
2023/02/16 09:58:03;;;;;;;3.85;1.83;;;19.40;46.40;;;;;;5094474;28;20232;-79
2023/02/16 10:00:43;;;;;;;5.05;2.00;;;19.40;46.60;;;;;;5097411;28;20822;-78
2023/02/16 10:03:31;;;;;;;3.33;2.20;;;19.40;46.40;;;;;;5095690;27;20277;-79
2023/02/16 10:06:11;;;;;;;6.85;1.85;;;19.40;46.60;;;;;;5095528;28;20235;-79
2023/02/16 10:08:41;;;;;;;2.40;1.63;;;19.40;46.60;;;;;;5092933;27;20339;-79
2023/02/16 10:14:03;;;;;;;4.05;1.60;;;19.40;46.50;;;;;;5094466;28;20293;-78
2023/02/16 10:16:36;;;;;;;2.05;1.35;;;19.40;46.60;;;;;;5096524;27;20213;-79
2023/02/16 10:19:15;;;;;;;2.90;1.70;;;19.50;46.70;;;;;;5091604;27;20213;-78
2023/02/16 10:21:48;;;;;;;4.38;1.90;;;19.40;46.60;;;;;;5095403;28;20205;-79
2023/02/16 10:24:15;;;;;;;2.80;1.75;;;19.50;46.70;;;;;;5095364;28;20230;-78
2023/02/16 10:26:46;;;;;;;2.90;1.63;;;19.50;46.70;;;;;;5092823;28;21049;-79
2023/02/16 10:29:17;;;;;;;7.47;1.75;;;19.50;46.70;;;;;;5096780;27;20274;-79
2023/02/16 10:31:58;;;;;;;3.67;1.52;;;19.50;46.70;;;;;;5094328;27;21133;-79
2023/02/16 10:34:38;;;;;;;6.35;1.85;;;19.50;46.70;;;;;;5096250;27;20293;-77
2023/02/16 10:37:27;;;;;;;2.47;1.40;;;19.50;46.70;;;;;;5093462;28;21052;-78
2023/02/16 10:40:09;;;;;;;2.30;1.42;;;19.50;46.80;;;;;;5094096;28;20220;-78
2023/02/16 10:42:42;;;;;;;2.08;1.50;;;19.50;46.70;;;;;;5090947;28;20749;-79
2023/02/16 10:45:22;;;;;;;2.67;1.52;;;19.50;46.80;;;;;;5095753;28;20201;-79
2023/02/16 10:47:50;;;;;;;2.95;1.40;;;19.60;47.00;;;;;;5091169;28;20228;-79
2023/02/16 10:50:23;;;;;;;2.60;1.45;;;19.60;46.90;;;;;;5097776;28;20204;-78
2023/02/16 10:52:54;;;;;;;2.95;1.55;;;19.60;46.90;;;;;;5095035;28;20702;-79
2023/02/16 10:55:21;;;;;;;3.92;1.70;;;19.60;46.90;;;;;;5095750;28;20258;-78
2023/02/16 10:57:54;;;;;;;4.15;1.50;;;19.60;46.90;;;;;;5097874;28;20200;-79
2023/02/16 11:00:34;;;;;;;3.20;1.45;;;19.60;47.10;;;;;;5093400;28;20193;-79
2023/02/16 11:03:03;;;;;;;4.68;1.50;;;19.60;46.90;;;;;;5095188;28;20204;-79
2023/02/16 11:05:36;;;;;;;2.92;1.60;;;19.60;47.00;;;;;;5097350;28;20197;-78
2023/02/16 11:08:12;;;;;;;4.50;1.70;;;19.70;47.10;;;;;;5092798;28;20194;-77
2023/02/16 11:10:56;;;;;;;2.45;1.60;;;19.70;47.10;;;;;;5094716;28;20233;-79
2023/02/16 11:13:32;;;;;;;2.05;1.45;;;19.70;47.10;;;;;;5100307;28;20316;-78
2023/02/16 11:16:12;;;;;;;1.95;1.40;;;19.70;47.20;;;;;;5103202;28;20249;-80
2023/02/16 11:21:45;;;;;;;3.10;1.42;;;19.70;47.30;;;;;;5060824;28;20200;-78
2023/02/16 11:24:24;;;;;;;3.88;1.45;;;19.70;47.40;;;;;;5087912;28;20583;-77
2023/02/16 11:27:07;;;;;;;4.70;1.40;;;19.70;47.30;;;;;;5096644;28;20205;-77
2023/02/16 11:29:39;;;;;;;3.30;1.50;;;19.70;47.30;;;;;;5089873;28;20304;-78
2023/02/16 11:32:21;;;;;;;3.88;1.13;;;19.70;47.20;;;;;;5063803;28;20194;-78
2023/02/16 11:34:52;;;;;;;3.33;1.77;;;19.70;47.30;;;;;;5087219;28;20237;-78
2023/02/16 11:37:29;;;;;;;3.83;1.38;;;19.70;47.30;;;;;;5078234;28;20230;-79
2023/02/16 11:40:00;;;;;;;2.63;1.52;;;19.70;47.40;;;;;;5082192;28;20283;-77
2023/02/16 11:42:33;;;;;;;3.40;1.45;;;19.70;47.40;;;;;;5096381;28;20206;-80
2023/02/16 11:45:02;;;;;;;6.85;1.70;;;19.70;47.30;;;;;;5087404;28;20221;-80
2023/02/16 11:47:34;;;;;;;3.38;1.80;;;19.70;47.40;;;;;;5099236;28;20202;-77
2023/02/16 11:50:20;;;;;;;3.47;1.60;;;19.70;47.40;;;;;;5091253;28;20229;-80
2023/02/16 11:52:48;;;;;;;3.53;1.50;;;19.70;47.70;;;;;;5100694;28;20877;-78
2023/02/16 11:55:31;;;;;;;2.00;1.30;;;19.70;47.60;;;;;;5091755;27;20322;-78
2023/02/16 11:58:20;;;;;;;4.65;1.50;;;19.70;47.50;;;;;;5087910;27;20209;-78
2023/02/16 12:01:07;;;;;;;2.50;1.42;;;19.70;47.50;;;;;;5087901;27;20206;-77
2023/02/16 12:06:54;;;;;;;2.63;1.33;;;19.80;47.60;;;;;;5099094;27;20694;-78
2023/02/16 12:09:31;;;;;;;2.25;1.35;;;19.80;47.70;;;;;;5078608;28;20849;-77
2023/02/16 12:12:06;;;;;;;5.90;1.17;;;19.70;47.60;;;;;;5094905;28;20193;-77
2023/02/16 12:14:46;;;;;;;2.40;1.65;;;19.70;47.70;;;;;;5047959;28;20691;-77
2023/02/16 12:17:27;;;;;;;3.03;1.55;;;19.70;47.60;;;;;;5091780;27;20214;-77
2023/02/16 12:20:03;;;;;;;6.00;1.45;;;19.70;47.60;;;;;;5088424;27;20309;-79
2023/02/16 12:22:40;;;;;;;4.40;1.55;;;19.80;47.70;;;;;;5091596;27;20205;-77
2023/02/16 12:25:23;;;;;;;1.90;1.45;;;19.80;47.70;;;;;;5090916;27;20228;-77
2023/02/16 12:27:55;;;;;;;4.20;1.63;;;19.80;47.60;;;;;;5092658;28;20297;-79
2023/02/16 12:30:32;;;;;;;2.47;1.45;;;19.80;47.60;;;;;;5086984;27;20226;-79
2023/02/16 12:33:20;;;;;;;2.35;1.23;;;19.80;47.70;;;;;;5096875;28;20225;-77
2023/02/16 12:36:11;;;;;;;2.03;1.23;;;19.80;47.80;;;;;;5091539;27;20207;-80
2023/02/16 12:38:51;;;;;;;4.93;1.55;;;19.80;47.70;;;;;;5096429;27;20209;-81
2023/02/16 12:41:29;;;;;;;3.60;1.33;;;19.80;47.80;;;;;;5099737;27;20811;-78
2023/02/16 12:44:00;;;;;;;2.38;1.25;;;19.80;47.80;;;;;;5094094;28;20729;-80
2023/02/16 12:46:32;;;;;;;2.35;1.33;;;19.80;47.80;;;;;;5094825;27;20205;-81
2023/02/16 12:49:05;;;;;;;4.30;1.38;;;19.80;47.90;;;;;;5096913;27;20221;-78
2023/02/16 12:51:38;;;;;;;6.82;1.33;;;19.80;48.00;;;;;;5089717;27;20190;-81
2023/02/16 12:54:17;;;;;;;2.70;1.52;;;19.90;48.20;;;;;;5097325;27;20237;-79
2023/02/16 12:56:49;;;;;;;3.53;1.10;;;19.90;48.10;;;;;;5095815;27;20205;-79
2023/02/16 12:59:20;;;;;;;2.38;1.02;;;19.90;48.10;;;;;;5095137;28;20266;-81
2023/02/16 13:04:44;;;;;;;2.67;1.23;;;19.90;48.30;;;;;;5061444;28;20224;-73
2023/02/16 13:07:21;;;;;;;4.05;1.30;;;19.90;48.60;;;;;;5089397;28;20770;-73
2023/02/16 13:12:48;;;;;;;3.40;1.33;;;19.90;48.90;;;;;;5048218;28;20218;-75
2023/02/16 13:15:22;;;;;;;2.55;1.20;;;20.00;49.10;;;;;;5049411;28;20254;-74
2023/02/16 13:17:58;;;;;;;3.85;1.60;;;20.10;49.40;;;;;;5048036;28;20206;-73
2023/02/16 13:20:30;;;;;;;19.77;1.63;;;20.10;49.70;;;;;;5046746;28;20222;-77
2023/02/16 13:23:30;;;;;;;3.03;1.20;;;20.20;49.90;;;;;;5049741;28;20203;-69
2023/02/16 13:26:41;;;;;;;6.18;1.45;;;20.20;50.30;;;;;;5053755;28;20194;-74
2023/02/16 13:29:51;;;;;;;3.53;1.48;;;20.30;51.10;;;;;;5092933;28;20270;-74
2023/02/16 13:33:07;;;;;;;5.72;1.83;;;20.30;50.40;;;;;;5091564;27;20208;-73
2023/02/16 13:36:00;;;;;;;4.72;1.33;;;20.40;50.30;;;;;;5047805;28;20231;-72
2023/02/16 13:38:55;;;;;;;4.85;1.50;;;20.40;50.20;;;;;;4982564;28;20625;-76
2023/02/16 13:41:50;;;;;;;7.75;1.30;;;20.40;50.20;;;;;;5016155;28;20237;-75
2023/02/16 13:44:20;;;;;;;2.55;1.38;;;20.40;50.00;;;;;;5009033;28;20228;-74
2023/02/16 13:46:51;;;;;;;4.55;1.50;;;20.40;50.00;;;;;;5008191;28;20321;-76
2023/02/16 13:49:41;;;;;;;4.30;1.40;;;20.50;50.10;;;;;;5009789;28;20231;-73
2023/02/16 13:52:10;;;;;;;3.33;1.35;;;20.50;50.20;;;;;;5005010;28;20201;-77
2023/02/16 13:54:42;;;;;;;7.55;1.58;;;20.50;50.10;;;;;;5007791;28;20233;-77
2023/02/16 13:57:17;;;;;;;6.47;1.50;;;20.60;50.50;;;;;;5007537;28;20691;-73
2023/02/16 13:59:59;;;;;;;7.90;1.67;;;20.50;50.30;;;;;;5002768;28;20231;-76
2023/02/16 14:02:58;;;;;;;3.72;1.73;;;20.60;50.50;;;;;;5006384;28;20292;-79
2023/02/16 14:05:30;;;;;;;5.28;1.40;;;20.60;50.50;;;;;;4991342;28;20231;-72
2023/02/16 14:08:27;;;;;;;2.45;1.27;;;20.60;50.60;;;;;;5048278;28;20214;-73
2023/02/16 14:11:04;;;;;;;9.20;1.60;;;20.60;50.60;;;;;;5048578;28;20326;-76